createdAt,value
2016-11-17T00:00:12.319Z,57.50
2016-11-17T00:01:12.917Z,57.60
2016-11-17T00:02:12.498Z,57.50
2016-11-17T00:03:12.522Z,57.60
2016-11-17T00:04:12.589Z,57.50
2016-11-17T00:05:12.561Z,57.60
2016-11-17T00:06:12.407Z,57.50
2016-11-17T00:07:12.889Z,57.90
2016-11-17T00:08:12.151Z,57.50
2016-11-17T00:09:11.864Z,57.60
2016-11-17T00:10:11.861Z,57.50
2016-11-17T00:11:12.173Z,57.50
2016-11-17T00:12:11.341Z,57.50
2016-11-17T00:13:11.305Z,57.50
2016-11-17T00:14:10.748Z,is
2016-11-17T00:15:11.841Z,57.50
2016-11-17T00:16:17.349Z,57.60
2016-11-17T00:17:12.195Z,57.70
2016-11-17T00:18:10.149Z,is
2016-11-17T00:19:12.288Z,57.60
2016-11-17T00:20:12.295Z,57.60
2016-11-17T00:21:12.908Z,57.60
2016-11-17T00:22:11.890Z,57.60
2016-11-17T00:23:11.235Z,is
2016-11-17T00:24:12.319Z,57.60
2016-11-17T00:25:12.730Z,57.60
2016-11-17T00:26:10.421Z,is
2016-11-17T00:27:12.288Z,57.70
2016-11-17T00:28:12.271Z,57.50
2016-11-17T00:29:13.961Z,57.60
2016-11-17T00:30:13.202Z,57.60
2016-11-17T00:31:12.667Z,57.70
2016-11-17T00:32:12.240Z,58.20
2016-11-17T00:33:12.628Z,57.60
2016-11-17T00:34:12.225Z,57.70
2016-11-17T00:35:11.250Z,57.60
2016-11-17T00:36:10.806Z,is
2016-11-17T00:37:11.863Z,57.60
2016-11-17T00:38:12.370Z,57.60
2016-11-17T00:39:11.211Z,is
2016-11-17T00:40:12.341Z,57.70
2016-11-17T00:41:12.650Z,57.80
2016-11-17T00:42:11.685Z,57.60
2016-11-17T00:43:12.320Z,57.70
2016-11-17T00:44:12.248Z,57.80
2016-11-17T00:45:12.927Z,57.80
2016-11-17T00:46:09.905Z,is
2016-11-17T00:47:11.869Z,57.80
2016-11-17T00:48:17.403Z,57.80
2016-11-17T00:49:12.000Z,57.80
2016-11-17T00:50:13.661Z,57.90
2016-11-17T00:51:12.245Z,58.00
2016-11-17T00:52:13.165Z,57.90
2016-11-17T00:53:12.779Z,57.90
2016-11-17T00:54:11.811Z,57.80
2016-11-17T00:55:11.760Z,57.90
2016-11-17T00:56:14.411Z,58.00
2016-11-17T00:57:11.785Z,57.90
2016-11-17T00:58:12.353Z,58.00
2016-11-17T00:59:12.710Z,58.00
2016-11-17T01:00:12.075Z,57.90
2016-11-17T01:01:12.026Z,58.00
2016-11-17T01:02:11.960Z,58.00
2016-11-17T01:03:12.832Z,58.00
2016-11-17T01:04:12.751Z,58.00
2016-11-17T01:05:12.597Z,58.10
2016-11-17T01:06:11.707Z,58.00
2016-11-17T01:07:10.975Z,is
2016-11-17T01:08:11.949Z,58.00
2016-11-17T01:09:12.391Z,58.00
2016-11-17T01:10:10.245Z,is
2016-11-17T01:11:11.586Z,58.00
2016-11-17T01:12:13.246Z,58.10
2016-11-17T01:13:18.764Z,58.00
2016-11-17T01:14:09.606Z,is
2016-11-17T01:15:13.331Z,58.10
2016-11-17T01:16:12.823Z,58.00
2016-11-17T01:17:14.209Z,58.10
2016-11-17T01:18:10.753Z,is
2016-11-17T01:19:12.798Z,58.10
2016-11-17T01:20:13.436Z,58.00
2016-11-17T01:21:11.841Z,58.10
2016-11-17T01:22:14.789Z,58.10
2016-11-17T01:23:14.751Z,58.10
2016-11-17T01:24:13.238Z,58.10
2016-11-17T01:25:16.575Z,58.10
2016-11-17T01:26:13.715Z,58.10
2016-11-17T01:27:14.035Z,58.10
2016-11-17T01:28:11.947Z,58.10
2016-11-17T01:29:10.366Z,is
2016-11-17T01:30:11.753Z,58.00
2016-11-17T01:31:13.792Z,58.20
2016-11-17T01:32:13.060Z,58.10
2016-11-17T01:33:12.844Z,58.20
2016-11-17T01:34:13.315Z,58.20
2016-11-17T01:35:12.336Z,58.10
2016-11-17T01:36:12.467Z,58.80
2016-11-17T01:37:13.050Z,58.20
2016-11-17T01:38:12.270Z,58.20
2016-11-17T01:39:13.689Z,58.10
2016-11-17T01:40:10.240Z,is
2016-11-17T01:41:11.922Z,58.20
2016-11-17T01:42:12.000Z,58.20
2016-11-17T01:43:14.522Z,58.30
2016-11-17T01:44:13.708Z,58.20
2016-11-17T01:45:14.350Z,58.20
2016-11-17T01:46:13.986Z,58.20
2016-11-17T01:47:13.626Z,58.20
2016-11-17T01:48:13.067Z,58.30
2016-11-17T01:49:13.628Z,58.20
2016-11-17T01:50:14.107Z,58.30
2016-11-17T01:51:13.465Z,58.20
2016-11-17T01:52:12.381Z,58.20
2016-11-17T01:53:12.941Z,58.20
2016-11-17T01:54:13.060Z,58.30
2016-11-17T01:55:12.150Z,58.20
2016-11-17T01:56:12.867Z,58.30
2016-11-17T01:57:14.160Z,58.30
2016-11-17T01:58:12.072Z,58.30
2016-11-17T01:59:15.527Z,58.30
2016-11-17T02:00:12.941Z,58.30
2016-11-17T02:01:13.565Z,58.30
2016-11-17T02:02:12.859Z,58.20
2016-11-17T02:03:12.881Z,58.30
2016-11-17T02:04:12.455Z,58.30
2016-11-17T02:05:13.553Z,58.30
2016-11-17T02:06:29.589Z,58.40
2016-11-17T02:07:12.690Z,58.30
2016-11-17T02:08:14.026Z,58.40
2016-11-17T02:09:13.185Z,58.30
2016-11-17T02:10:12.661Z,58.30
2016-11-17T02:11:12.727Z,58.30
2016-11-17T02:12:12.151Z,58.30
2016-11-17T02:13:14.790Z,58.40
2016-11-17T02:14:12.491Z,58.30
2016-11-17T02:15:10.229Z,is
2016-11-17T02:16:13.740Z,58.40
2016-11-17T02:17:13.399Z,58.40
2016-11-17T02:18:12.847Z,58.40
2016-11-17T02:19:10.378Z,is
2016-11-17T02:20:17.264Z,58.30
2016-11-17T02:21:12.426Z,58.40
2016-11-17T02:22:11.352Z,58.30
2016-11-17T02:23:10.079Z,is
2016-11-17T02:24:12.127Z,58.40
2016-11-17T02:25:13.158Z,58.40
2016-11-17T02:26:12.099Z,58.40
2016-11-17T02:27:10.539Z,is
2016-11-17T02:28:14.351Z,58.30
2016-11-17T02:29:12.220Z,58.40
2016-11-17T02:30:13.175Z,58.40
2016-11-17T02:31:13.854Z,58.40
2016-11-17T02:32:11.796Z,58.30
2016-11-17T02:33:13.153Z,58.40
2016-11-17T02:34:12.811Z,58.40
2016-11-17T02:35:13.420Z,58.40
2016-11-17T02:36:12.403Z,58.40
2016-11-17T02:37:13.925Z,58.40
2016-11-17T02:38:12.435Z,58.50
2016-11-17T02:39:12.974Z,58.30
2016-11-17T02:40:14.761Z,58.30
2016-11-17T02:41:12.530Z,58.40
2016-11-17T02:42:14.877Z,58.40
2016-11-17T02:43:13.189Z,58.40
2016-11-17T02:44:12.873Z,58.30
2016-11-17T02:45:13.670Z,58.40
2016-11-17T02:46:11.632Z,58.30
2016-11-17T02:47:12.817Z,58.20
2016-11-17T02:48:15.225Z,58.40
2016-11-17T02:49:12.259Z,58.30
2016-11-17T02:50:12.680Z,58.30
2016-11-17T02:51:11.691Z,58.30
2016-11-17T02:52:13.415Z,58.40
2016-11-17T02:53:12.143Z,58.30
2016-11-17T02:54:12.377Z,58.30
2016-11-17T02:55:09.452Z,is
2016-11-17T02:56:11.455Z,58.30
2016-11-17T02:57:12.007Z,58.30
2016-11-17T02:58:09.843Z,is
2016-11-17T02:59:12.148Z,58.40
2016-11-17T03:00:14.712Z,58.30
2016-11-17T03:01:12.336Z,58.40
2016-11-17T03:02:12.818Z,58.30
2016-11-17T03:03:12.271Z,58.30
2016-11-17T03:04:12.213Z,58.00
2016-11-17T03:05:12.755Z,58.30
2016-11-17T03:06:13.331Z,58.20
2016-11-17T03:07:13.132Z,58.30
2016-11-17T03:08:12.003Z,58.30
2016-11-17T03:09:12.900Z,58.50
2016-11-17T03:10:11.870Z,58.20
2016-11-17T03:11:12.369Z,58.30
2016-11-17T03:12:17.894Z,58.30
2016-11-17T03:13:12.480Z,58.40
2016-11-17T03:14:12.367Z,58.40
2016-11-17T03:15:12.250Z,58.30
2016-11-17T03:16:12.749Z,58.40
2016-11-17T03:17:12.942Z,58.30
2016-11-17T03:18:12.422Z,58.30
2016-11-17T03:19:11.361Z,58.30
2016-11-17T03:20:10.220Z,is
2016-11-17T03:21:12.489Z,58.30
2016-11-17T03:22:12.708Z,58.40
2016-11-17T03:23:13.455Z,58.40
2016-11-17T03:24:11.979Z,58.50
2016-11-17T03:25:12.747Z,58.40
2016-11-17T03:26:12.128Z,58.30
2016-11-17T03:27:13.822Z,58.30
2016-11-17T03:28:13.141Z,58.40
2016-11-17T03:29:12.152Z,58.40
2016-11-17T03:30:13.761Z,58.40
2016-11-17T03:31:09.772Z,is
2016-11-17T03:32:12.424Z,58.50
2016-11-17T03:33:13.591Z,58.30
2016-11-17T03:34:12.278Z,58.50
2016-11-17T03:35:11.828Z,58.40
2016-11-17T03:36:12.457Z,58.30
2016-11-17T03:37:13.894Z,58.40
2016-11-17T03:38:11.911Z,58.40
2016-11-17T03:39:11.923Z,58.30
2016-11-17T03:40:11.891Z,58.50
2016-11-17T03:41:09.111Z,is
2016-11-17T03:42:12.346Z,58.40
2016-11-17T03:43:13.313Z,58.40
2016-11-17T03:44:12.194Z,58.40
2016-11-17T03:45:12.934Z,58.50
2016-11-17T03:46:12.630Z,58.50
2016-11-17T03:47:10.656Z,is
2016-11-17T03:48:13.111Z,58.40
2016-11-17T03:49:12.766Z,58.50
2016-11-17T03:50:12.546Z,58.50
2016-11-17T03:51:12.302Z,58.40
2016-11-17T03:52:12.203Z,58.50
2016-11-17T03:53:12.712Z,58.50
2016-11-17T03:54:11.715Z,58.40
2016-11-17T03:55:12.442Z,58.50
2016-11-17T03:56:12.204Z,58.50
2016-11-17T03:57:12.809Z,58.50
2016-11-17T03:58:11.600Z,is
2016-11-17T03:59:12.703Z,58.50
2016-11-17T04:00:11.758Z,58.50
2016-11-17T04:01:12.417Z,58.50
2016-11-17T04:02:16.924Z,58.40
2016-11-17T04:03:11.873Z,58.40
2016-11-17T04:04:12.835Z,58.50
2016-11-17T04:05:12.465Z,58.40
2016-11-17T04:06:11.851Z,58.40
2016-11-17T04:07:12.490Z,58.50
2016-11-17T04:08:12.898Z,58.50
2016-11-17T04:09:12.949Z,58.50
2016-11-17T04:10:12.782Z,58.50
2016-11-17T04:11:13.541Z,58.40
2016-11-17T04:12:11.611Z,58.50
2016-11-17T04:13:12.784Z,58.50
2016-11-17T04:14:12.251Z,58.50
2016-11-17T04:15:12.676Z,58.40
2016-11-17T04:16:12.738Z,58.50
2016-11-17T04:17:14.684Z,58.40
2016-11-17T04:18:08.854Z,is
2016-11-17T04:19:12.564Z,58.50
2016-11-17T04:20:11.537Z,58.50
2016-11-17T04:21:13.283Z,58.50
2016-11-17T04:22:13.388Z,58.40
2016-11-17T04:23:11.915Z,58.50
2016-11-17T04:24:13.024Z,58.40
2016-11-17T04:25:11.869Z,58.50
2016-11-17T04:26:12.475Z,58.50
2016-11-17T04:27:12.686Z,58.50
2016-11-17T04:28:17.832Z,58.50
2016-11-17T04:29:13.348Z,58.50
2016-11-17T04:30:10.226Z,is
2016-11-17T04:31:13.731Z,58.50
2016-11-17T04:32:12.506Z,58.50
2016-11-17T04:33:13.379Z,58.50
2016-11-17T04:34:11.426Z,58.40
2016-11-17T04:35:12.041Z,58.40
2016-11-17T04:36:12.585Z,58.50
2016-11-17T04:37:11.547Z,58.50
2016-11-17T04:38:12.754Z,58.50
2016-11-17T04:39:12.074Z,58.40
2016-11-17T04:40:12.745Z,58.50
2016-11-17T04:41:11.663Z,58.40
2016-11-17T04:42:12.873Z,58.50
2016-11-17T04:43:13.548Z,58.50
2016-11-17T04:44:08.997Z,is
2016-11-17T04:45:12.033Z,58.40
2016-11-17T04:46:13.044Z,58.50
2016-11-17T04:47:11.883Z,58.40
2016-11-17T04:48:12.781Z,58.50
2016-11-17T04:49:12.323Z,58.40
2016-11-17T04:50:15.170Z,58.40
2016-11-17T04:51:13.022Z,58.50
2016-11-17T04:52:11.895Z,58.40
2016-11-17T04:53:12.264Z,58.20
2016-11-17T04:54:11.220Z,is
2016-11-17T04:55:12.745Z,58.50
2016-11-17T04:56:13.308Z,58.50
2016-11-17T04:57:14.586Z,58.50
2016-11-17T04:58:12.708Z,58.40
2016-11-17T04:59:12.414Z,58.40
2016-11-17T05:00:12.048Z,58.40
2016-11-17T05:01:12.908Z,58.50
2016-11-17T05:02:12.758Z,58.50
2016-11-17T05:03:14.389Z,58.50
2016-11-17T05:04:12.616Z,58.50
2016-11-17T05:05:12.386Z,58.50
2016-11-17T05:06:14.745Z,58.50
2016-11-17T05:07:09.921Z,is
2016-11-17T05:08:12.459Z,58.00
2016-11-17T05:09:12.036Z,58.50
2016-11-17T05:10:12.074Z,58.50
2016-11-17T05:11:11.929Z,58.40
2016-11-17T05:12:11.956Z,58.50
2016-11-17T05:13:11.833Z,58.50
2016-11-17T05:14:11.878Z,58.50
2016-11-17T05:15:10.740Z,is
2016-11-17T05:16:12.426Z,58.50
2016-11-17T05:17:12.015Z,58.50
2016-11-17T05:18:13.607Z,58.50
2016-11-17T05:19:11.742Z,58.50
2016-11-17T05:20:12.273Z,58.60
2016-11-17T05:21:12.293Z,58.60
2016-11-17T05:22:12.983Z,58.70
2016-11-17T05:23:11.890Z,58.60
2016-11-17T05:24:18.587Z,58.70
2016-11-17T05:25:15.411Z,58.60
2016-11-17T05:26:10.379Z,is
2016-11-17T05:27:11.509Z,58.60
2016-11-17T05:28:13.105Z,58.60
2016-11-17T05:29:10.751Z,is
2016-11-17T05:30:12.563Z,58.50
2016-11-17T05:31:13.612Z,58.70
2016-11-17T05:32:12.558Z,58.70
2016-11-17T05:33:10.220Z,is
2016-11-17T05:34:12.809Z,58.80
2016-11-17T05:35:13.608Z,58.60
2016-11-17T05:36:10.420Z,is
2016-11-17T05:37:12.438Z,58.70
2016-11-17T05:38:13.080Z,58.50
2016-11-17T05:39:10.123Z,is
2016-11-17T05:40:10.107Z,is
2016-11-17T05:41:11.342Z,58.60
2016-11-17T05:42:13.288Z,58.60
2016-11-17T05:43:13.015Z,58.70
2016-11-17T05:44:13.677Z,58.60
2016-11-17T05:45:09.718Z,is
2016-11-17T05:46:10.291Z,is
2016-11-17T05:47:11.736Z,58.50
2016-11-17T05:48:12.557Z,58.70
2016-11-17T05:49:12.061Z,58.60
2016-11-17T05:50:12.876Z,58.60
2016-11-17T05:51:11.870Z,58.60
2016-11-17T05:52:14.230Z,58.60
2016-11-17T05:53:13.847Z,58.50
2016-11-17T05:54:13.512Z,58.70
2016-11-17T05:55:10.027Z,is
2016-11-17T05:56:12.966Z,58.70
2016-11-17T05:57:12.735Z,58.70
2016-11-17T05:58:11.758Z,58.80
2016-11-17T05:59:13.870Z,58.60
2016-11-17T06:00:11.737Z,58.70
2016-11-17T06:01:12.426Z,58.70
2016-11-17T06:02:12.620Z,58.60
2016-11-17T06:03:11.658Z,58.60
2016-11-17T06:04:11.589Z,58.70
2016-11-17T06:05:11.573Z,58.60
2016-11-17T06:06:11.541Z,58.70
2016-11-17T06:07:13.154Z,58.70
2016-11-17T06:08:15.540Z,58.80
2016-11-17T06:09:13.326Z,58.90
2016-11-17T06:10:13.153Z,58.80
2016-11-17T06:11:12.657Z,58.70
2016-11-17T06:12:12.159Z,58.80
2016-11-17T06:13:12.729Z,58.90
2016-11-17T06:14:11.784Z,58.70
2016-11-17T06:15:12.651Z,58.90
2016-11-17T06:16:11.776Z,58.70
2016-11-17T06:17:11.792Z,58.70
2016-11-17T06:18:12.310Z,58.90
2016-11-17T06:19:12.193Z,58.80
2016-11-17T06:20:12.888Z,58.70
2016-11-17T06:21:12.480Z,58.80
2016-11-17T06:22:11.959Z,58.90
2016-11-17T06:23:11.994Z,58.80
2016-11-17T06:24:11.919Z,58.70
2016-11-17T06:25:13.235Z,58.90
2016-11-17T06:26:13.880Z,58.80
2016-11-17T06:27:12.221Z,58.70
2016-11-17T06:28:13.875Z,58.80
2016-11-17T06:29:11.796Z,58.80
2016-11-17T06:30:13.589Z,58.90
2016-11-17T06:31:12.341Z,58.90
2016-11-17T06:32:13.032Z,58.80
2016-11-17T06:33:12.456Z,58.70
2016-11-17T06:34:11.486Z,58.70
2016-11-17T06:35:12.193Z,59.00
2016-11-17T06:36:12.902Z,58.90
2016-11-17T06:37:12.776Z,58.80
2016-11-17T06:38:13.225Z,58.80
2016-11-17T06:39:12.862Z,58.90
2016-11-17T06:40:11.758Z,58.80
2016-11-17T06:41:12.527Z,58.80
2016-11-17T06:42:10.438Z,is
2016-11-17T06:43:14.019Z,58.80
2016-11-17T06:44:12.016Z,58.80
2016-11-17T06:45:11.950Z,58.60
2016-11-17T06:46:12.871Z,58.80
2016-11-17T06:47:12.021Z,58.80
2016-11-17T06:48:12.564Z,58.90
2016-11-17T06:49:12.244Z,58.90
2016-11-17T06:50:13.870Z,59.00
2016-11-17T06:51:11.926Z,58.90
2016-11-17T06:52:12.409Z,58.90
2016-11-17T06:53:12.738Z,59.00
2016-11-17T06:54:12.581Z,59.00
2016-11-17T06:55:12.143Z,59.00
2016-11-17T06:56:12.760Z,59.00
2016-11-17T06:57:11.842Z,59.00
2016-11-17T06:58:12.642Z,59.10
2016-11-17T06:59:12.023Z,58.90
2016-11-17T07:00:11.919Z,59.00
2016-11-17T07:01:11.761Z,59.10
2016-11-17T07:02:11.889Z,59.50
2016-11-17T07:03:13.708Z,59.80
2016-11-17T07:04:10.241Z,is
2016-11-17T07:05:10.395Z,is
2016-11-17T07:06:11.939Z,60.10
2016-11-17T07:07:12.526Z,60.10
2016-11-17T07:08:11.640Z,59.90
2016-11-17T07:09:11.600Z,59.70
2016-11-17T07:10:11.507Z,60.00
2016-11-17T07:11:12.226Z,60.10
2016-11-17T07:12:12.065Z,59.70
2016-11-17T07:13:12.037Z,59.80
2016-11-17T07:14:13.846Z,59.90
2016-11-17T07:15:12.133Z,60.00
2016-11-17T07:16:12.377Z,57.90
2016-11-17T07:17:12.583Z,54.70
2016-11-17T07:18:09.396Z,is
2016-11-17T07:19:13.501Z,53.40
2016-11-17T07:20:11.954Z,54.20
2016-11-17T07:21:12.886Z,54.10
2016-11-17T07:22:12.530Z,53.80
2016-11-17T07:23:14.592Z,53.80
2016-11-17T07:24:13.327Z,54.30
2016-11-17T07:25:12.248Z,54.40
2016-11-17T07:26:12.930Z,55.40
2016-11-17T07:27:12.779Z,55.40
2016-11-17T07:28:13.135Z,56.30
2016-11-17T07:29:12.127Z,56.00
2016-11-17T07:30:13.870Z,56.00
2016-11-17T07:31:13.649Z,55.60
2016-11-17T07:32:12.486Z,55.20
2016-11-17T07:33:11.918Z,55.00
2016-11-17T07:34:12.215Z,55.70
2016-11-17T07:35:10.961Z,is
2016-11-17T07:36:13.005Z,55.70
2016-11-17T07:37:13.365Z,56.50
2016-11-17T07:38:12.216Z,56.00
2016-11-17T07:39:13.396Z,55.80
2016-11-17T07:40:12.352Z,55.40
2016-11-17T07:41:13.439Z,55.40
2016-11-17T07:42:11.280Z,55.90
2016-11-17T07:43:13.743Z,56.10
2016-11-17T07:44:12.551Z,56.40
2016-11-17T07:45:12.420Z,56.80
2016-11-17T07:46:11.757Z,56.40
2016-11-17T07:47:11.720Z,56.20
2016-11-17T07:48:12.294Z,56.40
2016-11-17T07:49:12.788Z,56.50
2016-11-17T07:50:11.829Z,55.50
2016-11-17T07:51:13.718Z,55.50
2016-11-17T07:52:08.918Z,is
2016-11-17T07:53:11.845Z,56.10
2016-11-17T07:54:12.415Z,56.10
2016-11-17T07:55:11.493Z,56.30
2016-11-17T07:56:12.059Z,56.40
2016-11-17T07:57:10.970Z,is
2016-11-17T07:58:12.611Z,56.50
2016-11-17T07:59:12.523Z,56.50
2016-11-17T08:00:11.518Z,56.60
2016-11-17T08:01:12.292Z,56.60
2016-11-17T08:02:13.754Z,56.50
2016-11-17T08:03:12.321Z,56.40
2016-11-17T08:04:12.068Z,56.50
2016-11-17T08:05:12.713Z,57.20
2016-11-17T08:06:11.713Z,57.50
2016-11-17T08:07:11.829Z,57.30
2016-11-17T08:08:12.644Z,58.00
2016-11-17T08:09:12.187Z,58.10
2016-11-17T08:10:12.683Z,58.10
2016-11-17T08:11:12.286Z,57.10
2016-11-17T08:12:10.138Z,is
2016-11-17T08:13:13.097Z,58.00
2016-11-17T08:14:11.979Z,57.60
2016-11-17T08:15:12.042Z,56.60
2016-11-17T08:16:11.873Z,55.70
2016-11-17T08:17:12.592Z,56.10
2016-11-17T08:18:11.654Z,55.70
2016-11-17T08:19:12.086Z,55.70
2016-11-17T08:20:12.060Z,56.60
2016-11-17T08:21:12.069Z,56.40
2016-11-17T08:22:13.813Z,57.50
2016-11-17T08:23:12.261Z,57.20
2016-11-17T08:24:12.995Z,56.80
2016-11-17T08:25:11.870Z,57.20
2016-11-17T08:26:12.260Z,57.30
2016-11-17T08:27:12.578Z,57.00
2016-11-17T08:28:11.678Z,57.10
2016-11-17T08:29:12.149Z,57.10
2016-11-17T08:30:12.336Z,57.20
2016-11-17T08:31:12.264Z,57.30
2016-11-17T08:32:10.857Z,is
2016-11-17T08:33:12.606Z,57.50
2016-11-17T08:34:11.615Z,57.40
2016-11-17T08:35:12.075Z,57.40
2016-11-17T08:36:14.627Z,57.60
2016-11-17T08:37:11.528Z,57.40
2016-11-17T08:38:11.933Z,57.50
2016-11-17T08:39:11.987Z,57.00
2016-11-17T08:40:11.968Z,57.40
2016-11-17T08:41:12.787Z,57.40
2016-11-17T08:42:11.764Z,57.30
2016-11-17T08:43:12.404Z,57.50
2016-11-17T08:44:10.003Z,is
2016-11-17T08:45:12.967Z,57.40
2016-11-17T08:46:12.467Z,57.40
2016-11-17T08:47:10.009Z,is
2016-11-17T08:48:12.695Z,57.30
2016-11-17T08:49:12.229Z,57.40
2016-11-17T08:50:12.323Z,57.30
2016-11-17T08:51:12.586Z,57.30
2016-11-17T08:52:12.178Z,57.40
2016-11-17T08:53:13.635Z,57.30
2016-11-17T08:54:12.148Z,57.40
2016-11-17T08:55:12.598Z,57.30
2016-11-17T08:56:11.647Z,57.30
2016-11-17T08:57:14.226Z,57.30
2016-11-17T08:58:12.066Z,57.20
2016-11-17T08:59:14.479Z,57.20
2016-11-17T09:00:11.563Z,57.10
2016-11-17T09:01:09.491Z,is
2016-11-17T09:02:17.371Z,57.20
2016-11-17T09:03:12.305Z,57.20
2016-11-17T09:04:12.841Z,57.30
2016-11-17T09:05:12.274Z,57.20
2016-11-17T09:06:12.351Z,57.20
2016-11-17T09:07:11.332Z,57.20
2016-11-17T09:08:15.145Z,57.20
2016-11-17T09:09:12.012Z,57.20
2016-11-17T09:10:18.046Z,57.20
2016-11-17T09:11:11.922Z,57.10
2016-11-17T09:12:11.911Z,57.10
2016-11-17T09:13:12.541Z,57.20
2016-11-17T09:14:11.570Z,57.10
2016-11-17T09:15:12.054Z,57.20
2016-11-17T09:16:13.640Z,57.20
2016-11-17T09:17:10.216Z,is
2016-11-17T09:18:11.743Z,57.10
2016-11-17T09:19:11.559Z,57.10
2016-11-17T09:20:12.034Z,57.20
2016-11-17T09:21:10.344Z,is
2016-11-17T09:22:12.014Z,57.10
2016-11-17T09:23:13.714Z,57.10
2016-11-17T09:24:11.830Z,57.00
2016-11-17T09:25:11.823Z,57.10
2016-11-17T09:26:12.436Z,57.10
2016-11-17T09:27:11.339Z,57.10
2016-11-17T09:28:12.780Z,57.00
2016-11-17T09:29:12.415Z,57.10
2016-11-17T09:30:09.998Z,is
2016-11-17T09:31:13.083Z,57.10
2016-11-17T09:32:12.542Z,57.00
2016-11-17T09:33:12.152Z,57.10
2016-11-17T09:34:12.171Z,57.00
2016-11-17T09:35:12.045Z,57.00
2016-11-17T09:36:12.525Z,57.00
2016-11-17T09:37:13.999Z,57.10
2016-11-17T09:38:12.538Z,57.10
2016-11-17T09:39:12.853Z,57.10
2016-11-17T09:40:12.620Z,57.10
2016-11-17T09:41:13.386Z,57.10
2016-11-17T09:42:13.042Z,57.10
2016-11-17T09:43:14.588Z,57.10
2016-11-17T09:44:12.396Z,57.60
2016-11-17T09:45:11.460Z,57.10
2016-11-17T09:46:11.524Z,57.00
2016-11-17T09:47:12.181Z,57.10
2016-11-17T09:48:12.088Z,57.00
2016-11-17T09:49:11.491Z,57.00
2016-11-17T09:50:11.406Z,56.90
2016-11-17T09:51:09.923Z,is
2016-11-17T09:52:12.022Z,57.00
2016-11-17T09:53:13.235Z,57.00
2016-11-17T09:54:11.420Z,56.80
2016-11-17T09:55:13.284Z,56.90
2016-11-17T09:56:12.955Z,56.80
2016-11-17T09:57:10.362Z,is
2016-11-17T09:58:12.456Z,56.90
2016-11-17T09:59:12.476Z,56.90
2016-11-17T10:00:12.084Z,56.90
2016-11-17T10:01:12.564Z,56.90
2016-11-17T10:02:13.274Z,56.90
2016-11-17T10:03:12.761Z,56.90
2016-11-17T10:04:09.867Z,is
2016-11-17T10:05:11.995Z,56.80
2016-11-17T10:06:11.950Z,56.90
2016-11-17T10:07:11.661Z,56.90
2016-11-17T10:08:13.304Z,56.00
2016-11-17T10:09:12.745Z,56.80
2016-11-17T10:10:17.368Z,56.90
2016-11-17T10:11:12.440Z,56.80
2016-11-17T10:12:12.147Z,57.00
2016-11-17T10:13:12.494Z,56.80
2016-11-17T10:14:12.155Z,57.10
2016-11-17T10:15:12.035Z,57.00
2016-11-17T10:16:11.996Z,57.00
2016-11-17T10:17:12.190Z,57.00
2016-11-17T10:18:12.005Z,57.20
2016-11-17T10:19:10.720Z,is
2016-11-17T10:20:12.420Z,57.10
2016-11-17T10:21:12.224Z,57.30
2016-11-17T10:22:12.126Z,57.50
2016-11-17T10:23:10.760Z,is
2016-11-17T10:24:12.024Z,58.10
2016-11-17T10:25:13.623Z,58.00
2016-11-17T10:26:11.631Z,57.70
2016-11-17T10:27:12.353Z,57.70
2016-11-17T10:28:12.934Z,57.60
2016-11-17T10:29:12.814Z,57.50
2016-11-17T10:30:11.697Z,57.30
2016-11-17T10:31:12.257Z,57.50
2016-11-17T10:32:12.155Z,57.50
2016-11-17T10:33:12.736Z,57.50
2016-11-17T10:34:12.032Z,57.40
2016-11-17T10:35:12.756Z,57.50
2016-11-17T10:36:12.019Z,57.50
2016-11-17T10:37:11.993Z,57.40
2016-11-17T10:38:11.948Z,57.30
2016-11-17T10:39:12.344Z,57.50
2016-11-17T10:40:12.830Z,57.50
2016-11-17T10:41:11.899Z,57.40
2016-11-17T10:42:12.261Z,57.30
2016-11-17T10:43:12.217Z,57.30
2016-11-17T10:44:12.224Z,57.30
2016-11-17T10:45:11.987Z,57.40
2016-11-17T10:46:11.588Z,57.30
2016-11-17T10:47:11.629Z,57.30
2016-11-17T10:48:12.122Z,57.20
2016-11-17T10:49:13.187Z,57.30
2016-11-17T10:50:13.341Z,57.30
2016-11-17T10:51:12.203Z,57.30
2016-11-17T10:52:13.542Z,57.30
2016-11-17T10:53:13.230Z,57.30
2016-11-17T10:54:13.851Z,57.30
2016-11-17T10:55:11.775Z,57.20
2016-11-17T10:56:11.717Z,57.20
2016-11-17T10:57:11.678Z,57.20
2016-11-17T10:58:12.222Z,57.20
2016-11-17T10:59:11.101Z,is
2016-11-17T11:00:12.787Z,57.30
2016-11-17T11:01:12.128Z,57.20
2016-11-17T11:02:12.658Z,57.20
2016-11-17T11:03:12.294Z,57.30
2016-11-17T11:04:10.115Z,is
2016-11-17T11:05:11.426Z,57.20
2016-11-17T11:06:12.012Z,57.20
2016-11-17T11:07:11.860Z,57.10
2016-11-17T11:08:10.296Z,is
2016-11-17T11:09:12.273Z,57.20
2016-11-17T11:10:12.232Z,57.10
2016-11-17T11:11:12.158Z,57.10
2016-11-17T11:12:12.186Z,57.10
2016-11-17T11:13:12.118Z,57.10
2016-11-17T11:14:12.116Z,57.10
2016-11-17T11:15:12.025Z,57.00
2016-11-17T11:16:12.522Z,57.00
2016-11-17T11:17:11.611Z,57.20
2016-11-17T11:18:12.257Z,57.10
2016-11-17T11:19:12.112Z,57.00
2016-11-17T11:20:12.478Z,57.00
2016-11-17T11:21:11.380Z,57.00
2016-11-17T11:22:12.984Z,57.10
2016-11-17T11:23:12.475Z,57.10
2016-11-17T11:24:12.997Z,57.10
2016-11-17T11:25:09.975Z,is
2016-11-17T11:26:13.442Z,57.00
2016-11-17T11:27:11.386Z,57.00
2016-11-17T11:28:14.977Z,57.00
2016-11-17T11:29:12.491Z,57.00
2016-11-17T11:30:11.476Z,57.00
2016-11-17T11:31:12.179Z,57.00
2016-11-17T11:32:12.206Z,57.00
2016-11-17T11:33:12.917Z,57.00
2016-11-17T11:34:11.917Z,56.90
2016-11-17T11:35:12.641Z,57.00
2016-11-17T11:36:12.291Z,57.00
2016-11-17T11:37:12.737Z,56.90
2016-11-17T11:38:11.641Z,56.90
2016-11-17T11:39:11.539Z,56.90
2016-11-17T11:40:13.213Z,57.00
2016-11-17T11:41:12.763Z,57.10
2016-11-17T11:42:12.195Z,56.90
2016-11-17T11:43:12.205Z,57.00
2016-11-17T11:44:12.986Z,56.90
2016-11-17T11:45:11.824Z,56.90
2016-11-17T11:46:11.720Z,57.00
2016-11-17T11:47:13.387Z,57.00
2016-11-17T11:48:11.337Z,56.90
2016-11-17T11:49:11.255Z,56.90
2016-11-17T11:50:12.081Z,57.00
2016-11-17T11:51:12.368Z,57.00
2016-11-17T11:52:12.221Z,56.90
2016-11-17T11:53:12.146Z,56.90
2016-11-17T11:54:10.980Z,is
2016-11-17T11:55:12.116Z,56.90
2016-11-17T11:56:12.698Z,57.00
2016-11-17T11:57:12.305Z,57.00
2016-11-17T11:58:12.646Z,56.90
2016-11-17T11:59:12.041Z,57.00
2016-11-17T12:00:12.474Z,57.00
2016-11-17T12:01:11.464Z,56.80
2016-11-17T12:02:13.178Z,56.90
2016-11-17T12:03:11.972Z,56.80
2016-11-17T12:04:11.592Z,56.90
2016-11-17T12:05:10.004Z,is
2016-11-17T12:06:11.428Z,56.80
2016-11-17T12:07:11.947Z,56.90
2016-11-17T12:08:09.082Z,is
2016-11-17T12:09:11.358Z,56.80
2016-11-17T12:10:12.295Z,56.80
2016-11-17T12:11:12.152Z,56.80
2016-11-17T12:12:12.475Z,56.90
2016-11-17T12:13:11.570Z,56.80
2016-11-17T12:14:12.149Z,56.80
2016-11-17T12:15:12.016Z,56.80
2016-11-17T12:16:12.095Z,56.80
2016-11-17T12:17:12.949Z,56.90
2016-11-17T12:18:11.398Z,56.90
2016-11-17T12:19:12.279Z,56.80
2016-11-17T12:20:12.867Z,56.90
2016-11-17T12:21:12.177Z,56.90
2016-11-17T12:22:12.740Z,56.90
2016-11-17T12:23:11.855Z,56.90
2016-11-17T12:24:11.864Z,56.90
2016-11-17T12:25:13.266Z,56.80
2016-11-17T12:26:12.720Z,56.80
2016-11-17T12:27:12.926Z,56.90
2016-11-17T12:28:12.346Z,56.90
2016-11-17T12:29:16.318Z,56.80
2016-11-17T12:30:12.187Z,56.80
2016-11-17T12:31:12.600Z,56.70
2016-11-17T12:32:12.107Z,56.70
2016-11-17T12:33:12.474Z,56.80
2016-11-17T12:34:11.560Z,56.80
2016-11-17T12:35:11.660Z,56.70
2016-11-17T12:36:12.480Z,56.90
2016-11-17T12:37:11.560Z,56.80
2016-11-17T12:38:11.515Z,56.70
2016-11-17T12:39:11.627Z,56.60
2016-11-17T12:40:12.289Z,56.80
2016-11-17T12:41:12.713Z,56.70
2016-11-17T12:42:11.767Z,56.70
2016-11-17T12:43:12.213Z,56.60
2016-11-17T12:44:12.506Z,56.70
2016-11-17T12:45:11.565Z,56.70
2016-11-17T12:46:11.586Z,56.70
2016-11-17T12:47:12.484Z,56.80
2016-11-17T12:48:11.629Z,56.80
2016-11-17T12:49:12.140Z,56.70
2016-11-17T12:50:12.799Z,56.80
2016-11-17T12:51:12.424Z,56.80
2016-11-17T12:52:11.423Z,56.60
2016-11-17T12:53:12.154Z,56.70
2016-11-17T12:54:12.142Z,56.70
2016-11-17T12:55:12.833Z,56.80
2016-11-17T12:56:11.954Z,56.70
2016-11-17T12:57:11.998Z,56.70
2016-11-17T12:58:12.446Z,56.60
2016-11-17T12:59:11.430Z,56.60